sensor_id;sensor_type;location;lat;lon;timestamp;temperature;humidity
72128;DHT22;60000;51.030;7.024;2023-03-19T00:01:43;11.06;75.71
72128;DHT22;60000;51.030;7.024;2023-03-19T00:04:08;11.06;75.70
72128;DHT22;60000;51.030;7.024;2023-03-19T00:06:34;11.02;75.97
72128;DHT22;60000;51.030;7.024;2023-03-19T00:08:59;11.02;75.92
72128;DHT22;60000;51.030;7.024;2023-03-19T00:11:25;11.00;76.10
72128;DHT22;60000;51.030;7.024;2023-03-19T00:13:50;10.99;76.22
72128;DHT22;60000;51.030;7.024;2023-03-19T00:16:16;10.96;76.36
72128;DHT22;60000;51.030;7.024;2023-03-19T00:18:41;10.93;76.67
72128;DHT22;60000;51.030;7.024;2023-03-19T00:21:07;10.92;76.87
72128;DHT22;60000;51.030;7.024;2023-03-19T00:23:32;10.91;76.99
72128;DHT22;60000;51.030;7.024;2023-03-19T00:25:58;10.86;77.11
72128;DHT22;60000;51.030;7.024;2023-03-19T00:28:23;10.85;77.13
72128;DHT22;60000;51.030;7.024;2023-03-19T00:30:49;10.83;77.30
72128;DHT22;60000;51.030;7.024;2023-03-19T00:33:14;10.83;77.28
72128;DHT22;60000;51.030;7.024;2023-03-19T00:35:40;10.80;77.58
72128;DHT22;60000;51.030;7.024;2023-03-19T00:38:05;10.79;77.58
72128;DHT22;60000;51.030;7.024;2023-03-19T00:40:30;10.75;77.59
72128;DHT22;60000;51.030;7.024;2023-03-19T00:42:56;10.73;77.65
72128;DHT22;60000;51.030;7.024;2023-03-19T00:45:22;10.72;77.79
72128;DHT22;60000;51.030;7.024;2023-03-19T00:47:47;10.68;77.81
72128;DHT22;60000;51.030;7.024;2023-03-19T00:50:13;10.62;77.78
72128;DHT22;60000;51.030;7.024;2023-03-19T00:52:38;10.55;77.90
72128;DHT22;60000;51.030;7.024;2023-03-19T00:55:04;10.48;78.02
72128;DHT22;60000;51.030;7.024;2023-03-19T00:57:29;10.42;78.26
72128;DHT22;60000;51.030;7.024;2023-03-19T00:59:55;10.36;78.28
72128;DHT22;60000;51.030;7.024;2023-03-19T01:02:20;10.28;78.47
72128;DHT22;60000;51.030;7.024;2023-03-19T01:04:48;10.21;78.54
72128;DHT22;60000;51.030;7.024;2023-03-19T01:07:13;10.14;78.62
72128;DHT22;60000;51.030;7.024;2023-03-19T01:09:39;10.07;78.91
72128;DHT22;60000;51.030;7.024;2023-03-19T01:12:06;10.03;79.23
72128;DHT22;60000;51.030;7.024;2023-03-19T01:14:32;10.01;79.53
72128;DHT22;60000;51.030;7.024;2023-03-19T01:16:58;9.94;79.51
72128;DHT22;60000;51.030;7.024;2023-03-19T01:19:23;9.89;79.47
72128;DHT22;60000;51.030;7.024;2023-03-19T01:21:49;9.83;79.55
72128;DHT22;60000;51.030;7.024;2023-03-19T01:24:15;9.75;79.69
72128;DHT22;60000;51.030;7.024;2023-03-19T01:26:41;9.69;79.74
72128;DHT22;60000;51.030;7.024;2023-03-19T01:29:07;9.66;80.23
72128;DHT22;60000;51.030;7.024;2023-03-19T01:31:32;9.66;80.45
72128;DHT22;60000;51.030;7.024;2023-03-19T01:33:59;9.62;80.19
72128;DHT22;60000;51.030;7.024;2023-03-19T01:36:26;9.62;80.44
72128;DHT22;60000;51.030;7.024;2023-03-19T01:38:51;9.62;80.14
72128;DHT22;60000;51.030;7.024;2023-03-19T01:41:16;9.59;80.26
72128;DHT22;60000;51.030;7.024;2023-03-19T01:43:42;9.60;80.49
72128;DHT22;60000;51.030;7.024;2023-03-19T01:46:20;9.58;80.22
72128;DHT22;60000;51.030;7.024;2023-03-19T01:48:53;9.60;80.88
72128;DHT22;60000;51.030;7.024;2023-03-19T01:51:25;9.58;80.60
72128;DHT22;60000;51.030;7.024;2023-03-19T01:53:55;9.59;80.47
72128;DHT22;60000;51.030;7.024;2023-03-19T01:56:25;9.62;80.65
72128;DHT22;60000;51.030;7.024;2023-03-19T01:58:55;9.63;80.50
72128;DHT22;60000;51.030;7.024;2023-03-19T02:01:21;9.66;80.52
72128;DHT22;60000;51.030;7.024;2023-03-19T02:03:49;9.65;80.39
72128;DHT22;60000;51.030;7.024;2023-03-19T02:06:15;9.65;80.36
72128;DHT22;60000;51.030;7.024;2023-03-19T02:08:41;9.63;80.58
72128;DHT22;60000;51.030;7.024;2023-03-19T02:11:07;9.63;80.76
72128;DHT22;60000;51.030;7.024;2023-03-19T02:13:34;9.65;81.05
72128;DHT22;60000;51.030;7.024;2023-03-19T02:16:00;9.70;81.03
72128;DHT22;60000;51.030;7.024;2023-03-19T02:18:26;9.76;80.90
72128;DHT22;60000;51.030;7.024;2023-03-19T02:21:07;9.85;80.83
72128;DHT22;60000;51.030;7.024;2023-03-19T02:23:46;9.94;80.52
72128;DHT22;60000;51.030;7.024;2023-03-19T02:26:15;10.06;80.10
72128;DHT22;60000;51.030;7.024;2023-03-19T02:28:43;10.14;79.83
72128;DHT22;60000;51.030;7.024;2023-03-19T02:31:10;10.18;79.55
72128;DHT22;60000;51.030;7.024;2023-03-19T02:33:36;10.30;79.29
72128;DHT22;60000;51.030;7.024;2023-03-19T02:36:04;10.34;79.03
72128;DHT22;60000;51.030;7.024;2023-03-19T02:38:32;10.37;78.81
72128;DHT22;60000;51.030;7.024;2023-03-19T02:41:03;10.38;78.79
72128;DHT22;60000;51.030;7.024;2023-03-19T02:43:30;10.37;78.71
72128;DHT22;60000;51.030;7.024;2023-03-19T02:45:56;10.38;78.68
72128;DHT22;60000;51.030;7.024;2023-03-19T02:48:23;10.37;78.54
72128;DHT22;60000;51.030;7.024;2023-03-19T02:50:48;10.41;78.67
72128;DHT22;60000;51.030;7.024;2023-03-19T02:53:13;10.45;78.40
72128;DHT22;60000;51.030;7.024;2023-03-19T02:55:40;10.51;78.19
72128;DHT22;60000;51.030;7.024;2023-03-19T02:58:05;10.58;77.95
72128;DHT22;60000;51.030;7.024;2023-03-19T03:00:31;10.57;77.86
72128;DHT22;60000;51.030;7.024;2023-03-19T03:02:56;10.58;77.76
72128;DHT22;60000;51.030;7.024;2023-03-19T03:05:22;10.61;77.60
72128;DHT22;60000;51.030;7.024;2023-03-19T03:07:48;10.61;77.51
72128;DHT22;60000;51.030;7.024;2023-03-19T03:10:14;10.61;77.55
72128;DHT22;60000;51.030;7.024;2023-03-19T03:12:40;10.59;77.56
72128;DHT22;60000;51.030;7.024;2023-03-19T03:15:06;10.62;77.45
72128;DHT22;60000;51.030;7.024;2023-03-19T03:17:32;10.59;77.48
72128;DHT22;60000;51.030;7.024;2023-03-19T03:20:00;10.59;77.39
72128;DHT22;60000;51.030;7.024;2023-03-19T03:22:25;10.64;77.31
72128;DHT22;60000;51.030;7.024;2023-03-19T03:24:51;10.64;77.26
72128;DHT22;60000;51.030;7.024;2023-03-19T03:27:16;10.64;77.08
72128;DHT22;60000;51.030;7.024;2023-03-19T03:29:42;10.67;77.07
72128;DHT22;60000;51.030;7.024;2023-03-19T03:32:07;10.68;77.01
72128;DHT22;60000;51.030;7.024;2023-03-19T03:34:33;10.71;76.91
72128;DHT22;60000;51.030;7.024;2023-03-19T03:36:58;10.72;76.79
72128;DHT22;60000;51.030;7.024;2023-03-19T03:39:23;10.72;76.78
72128;DHT22;60000;51.030;7.024;2023-03-19T03:41:49;10.72;76.77
72128;DHT22;60000;51.030;7.024;2023-03-19T03:44:14;10.78;76.55
72128;DHT22;60000;51.030;7.024;2023-03-19T03:46:40;10.78;76.56
72128;DHT22;60000;51.030;7.024;2023-03-19T03:49:07;10.75;76.48
72128;DHT22;60000;51.030;7.024;2023-03-19T03:51:32;10.76;76.47
72128;DHT22;60000;51.030;7.024;2023-03-19T03:53:58;10.78;76.48
72128;DHT22;60000;51.030;7.024;2023-03-19T03:56:23;10.76;76.41
72128;DHT22;60000;51.030;7.024;2023-03-19T03:58:48;10.78;76.51
72128;DHT22;60000;51.030;7.024;2023-03-19T04:01:15;10.78;76.41
72128;DHT22;60000;51.030;7.024;2023-03-19T04:03:41;10.79;76.37
72128;DHT22;60000;51.030;7.024;2023-03-19T04:06:06;10.80;76.19
72128;DHT22;60000;51.030;7.024;2023-03-19T04:08:32;10.79;76.22
72128;DHT22;60000;51.030;7.024;2023-03-19T04:10:57;10.80;76.11
72128;DHT22;60000;51.030;7.024;2023-03-19T04:13:23;10.75;76.04
72128;DHT22;60000;51.030;7.024;2023-03-19T04:15:48;10.76;76.25
72128;DHT22;60000;51.030;7.024;2023-03-19T04:18:13;10.72;76.44
72128;DHT22;60000;51.030;7.024;2023-03-19T04:20:39;10.68;76.48
72128;DHT22;60000;51.030;7.024;2023-03-19T04:23:05;10.69;76.49
72128;DHT22;60000;51.030;7.024;2023-03-19T04:25:31;10.67;76.51
72128;DHT22;60000;51.030;7.024;2023-03-19T04:27:57;10.59;76.57
72128;DHT22;60000;51.030;7.024;2023-03-19T04:30:22;10.58;76.73
72128;DHT22;60000;51.030;7.024;2023-03-19T04:32:48;10.58;76.88
72128;DHT22;60000;51.030;7.024;2023-03-19T04:35:13;10.55;76.66
72128;DHT22;60000;51.030;7.024;2023-03-19T04:37:39;10.48;76.99
72128;DHT22;60000;51.030;7.024;2023-03-19T04:40:05;10.47;77.25
72128;DHT22;60000;51.030;7.024;2023-03-19T04:42:30;10.47;77.43
72128;DHT22;60000;51.030;7.024;2023-03-19T04:44:56;10.47;77.31
72128;DHT22;60000;51.030;7.024;2023-03-19T04:47:21;10.44;77.29
72128;DHT22;60000;51.030;7.024;2023-03-19T04:49:47;10.45;77.39
72128;DHT22;60000;51.030;7.024;2023-03-19T04:52:13;10.42;77.56
72128;DHT22;60000;51.030;7.024;2023-03-19T04:54:38;10.41;77.47
72128;DHT22;60000;51.030;7.024;2023-03-19T04:57:04;10.41;77.71
72128;DHT22;60000;51.030;7.024;2023-03-19T04:59:29;10.44;77.66
72128;DHT22;60000;51.030;7.024;2023-03-19T05:01:55;10.45;77.61
72128;DHT22;60000;51.030;7.024;2023-03-19T05:04:20;10.45;77.58
72128;DHT22;60000;51.030;7.024;2023-03-19T05:06:47;10.45;77.49
72128;DHT22;60000;51.030;7.024;2023-03-19T05:09:12;10.47;77.50
72128;DHT22;60000;51.030;7.024;2023-03-19T05:11:37;10.52;77.42
72128;DHT22;60000;51.030;7.024;2023-03-19T05:14:03;10.54;77.32
72128;DHT22;60000;51.030;7.024;2023-03-19T05:16:29;10.57;77.25
72128;DHT22;60000;51.030;7.024;2023-03-19T05:18:55;10.59;77.22
72128;DHT22;60000;51.030;7.024;2023-03-19T05:21:20;10.64;77.03
72128;DHT22;60000;51.030;7.024;2023-03-19T05:23:46;10.62;77.04
72128;DHT22;60000;51.030;7.024;2023-03-19T05:26:16;10.67;76.88
72128;DHT22;60000;51.030;7.024;2023-03-19T05:28:42;10.65;76.84
72128;DHT22;60000;51.030;7.024;2023-03-19T05:31:08;10.65;76.90
72128;DHT22;60000;51.030;7.024;2023-03-19T05:33:33;10.67;76.80
72128;DHT22;60000;51.030;7.024;2023-03-19T05:35:59;10.67;76.81
72128;DHT22;60000;51.030;7.024;2023-03-19T05:38:25;10.72;76.63
72128;DHT22;60000;51.030;7.024;2023-03-19T05:40:50;10.78;76.57
72128;DHT22;60000;51.030;7.024;2023-03-19T05:43:18;10.75;76.47
72128;DHT22;60000;51.030;7.024;2023-03-19T05:45:49;10.78;76.47
72128;DHT22;60000;51.030;7.024;2023-03-19T05:48:15;10.79;76.42
72128;DHT22;60000;51.030;7.024;2023-03-19T05:50:41;10.79;76.49
72128;DHT22;60000;51.030;7.024;2023-03-19T05:53:07;10.78;76.47
72128;DHT22;60000;51.030;7.024;2023-03-19T05:55:32;10.80;76.43
72128;DHT22;60000;51.030;7.024;2023-03-19T05:57:57;10.80;76.52
72128;DHT22;60000;51.030;7.024;2023-03-19T06:00:23;10.82;76.46
72128;DHT22;60000;51.030;7.024;2023-03-19T06:02:48;10.83;76.52
72128;DHT22;60000;51.030;7.024;2023-03-19T06:05:14;10.83;76.41
72128;DHT22;60000;51.030;7.024;2023-03-19T06:07:39;10.86;76.54
72128;DHT22;60000;51.030;7.024;2023-03-19T06:10:05;10.85;76.33
72128;DHT22;60000;51.030;7.024;2023-03-19T06:12:30;10.92;76.27
72128;DHT22;60000;51.030;7.024;2023-03-19T06:14:56;10.92;76.19
72128;DHT22;60000;51.030;7.024;2023-03-19T06:17:21;10.92;76.30
72128;DHT22;60000;51.030;7.024;2023-03-19T06:19:47;10.93;76.41
72128;DHT22;60000;51.030;7.024;2023-03-19T06:22:12;10.92;76.54
72128;DHT22;60000;51.030;7.024;2023-03-19T06:24:37;10.93;76.55
72128;DHT22;60000;51.030;7.024;2023-03-19T06:27:03;10.93;76.58
72128;DHT22;60000;51.030;7.024;2023-03-19T06:29:28;10.93;76.59
72128;DHT22;60000;51.030;7.024;2023-03-19T06:31:53;10.95;76.43
72128;DHT22;60000;51.030;7.024;2023-03-19T06:34:19;11.00;76.54
72128;DHT22;60000;51.030;7.024;2023-03-19T06:36:44;10.98;76.60
72128;DHT22;60000;51.030;7.024;2023-03-19T06:39:10;10.98;76.57
72128;DHT22;60000;51.030;7.024;2023-03-19T06:41:36;11.02;76.44
72128;DHT22;60000;51.030;7.024;2023-03-19T06:44:02;11.02;76.28
72128;DHT22;60000;51.030;7.024;2023-03-19T06:46:28;11.08;76.00
72128;DHT22;60000;51.030;7.024;2023-03-19T06:48:54;11.09;75.93
72128;DHT22;60000;51.030;7.024;2023-03-19T06:51:19;11.12;75.74
72128;DHT22;60000;51.030;7.024;2023-03-19T06:53:45;11.15;75.75
72128;DHT22;60000;51.030;7.024;2023-03-19T06:56:10;11.13;75.76
72128;DHT22;60000;51.030;7.024;2023-03-19T06:58:35;11.15;75.80
72128;DHT22;60000;51.030;7.024;2023-03-19T07:01:01;11.12;75.80
72128;DHT22;60000;51.030;7.024;2023-03-19T07:03:26;11.13;75.84
72128;DHT22;60000;51.030;7.024;2023-03-19T07:05:52;11.19;75.85
72128;DHT22;60000;51.030;7.024;2023-03-19T07:08:18;11.17;75.90
72128;DHT22;60000;51.030;7.024;2023-03-19T07:10:44;11.17;75.90
72128;DHT22;60000;51.030;7.024;2023-03-19T07:13:09;11.16;75.99
72128;DHT22;60000;51.030;7.024;2023-03-19T07:15:34;11.15;76.11
72128;DHT22;60000;51.030;7.024;2023-03-19T07:18:01;11.16;76.03
72128;DHT22;60000;51.030;7.024;2023-03-19T07:20:26;11.17;76.06
72128;DHT22;60000;51.030;7.024;2023-03-19T07:22:52;11.17;76.19
72128;DHT22;60000;51.030;7.024;2023-03-19T07:25:17;11.16;76.29
72128;DHT22;60000;51.030;7.024;2023-03-19T07:27:43;11.19;76.45
72128;DHT22;60000;51.030;7.024;2023-03-19T07:30:10;11.19;76.39
72128;DHT22;60000;51.030;7.024;2023-03-19T07:32:36;11.17;76.51
72128;DHT22;60000;51.030;7.024;2023-03-19T07:35:03;11.19;76.53
72128;DHT22;60000;51.030;7.024;2023-03-19T07:37:28;11.20;76.55
72128;DHT22;60000;51.030;7.024;2023-03-19T07:39:54;11.24;76.49
72128;DHT22;60000;51.030;7.024;2023-03-19T07:42:19;11.27;76.51
72128;DHT22;60000;51.030;7.024;2023-03-19T07:44:44;11.27;76.61
72128;DHT22;60000;51.030;7.024;2023-03-19T07:47:10;11.29;76.57
72128;DHT22;60000;51.030;7.024;2023-03-19T07:49:35;11.31;76.41
72128;DHT22;60000;51.030;7.024;2023-03-19T07:52:01;11.33;76.41
72128;DHT22;60000;51.030;7.024;2023-03-19T07:54:26;11.37;76.38
72128;DHT22;60000;51.030;7.024;2023-03-19T07:56:51;11.43;76.44
72128;DHT22;60000;51.030;7.024;2023-03-19T07:59:17;11.51;76.54
72128;DHT22;60000;51.030;7.024;2023-03-19T08:01:42;11.61;76.35
72128;DHT22;60000;51.030;7.024;2023-03-19T08:04:07;11.74;76.19
72128;DHT22;60000;51.030;7.024;2023-03-19T08:06:33;11.84;75.77
72128;DHT22;60000;51.030;7.024;2023-03-19T08:08:58;11.91;75.59
72128;DHT22;60000;51.030;7.024;2023-03-19T08:11:23;11.95;75.43
72128;DHT22;60000;51.030;7.024;2023-03-19T08:13:49;11.99;75.25
72128;DHT22;60000;51.030;7.024;2023-03-19T08:16:14;12.06;75.01
72128;DHT22;60000;51.030;7.024;2023-03-19T08:18:40;12.14;75.08
72128;DHT22;60000;51.030;7.024;2023-03-19T08:21:06;12.16;74.88
72128;DHT22;60000;51.030;7.024;2023-03-19T08:23:31;12.24;74.85
72128;DHT22;60000;51.030;7.024;2023-03-19T08:25:57;12.30;74.71
72128;DHT22;60000;51.030;7.024;2023-03-19T08:28:22;12.33;74.73
72128;DHT22;60000;51.030;7.024;2023-03-19T08:30:47;12.40;74.72
72128;DHT22;60000;51.030;7.024;2023-03-19T08:33:13;12.43;74.54
72128;DHT22;60000;51.030;7.024;2023-03-19T08:35:38;12.47;74.25
72128;DHT22;60000;51.030;7.024;2023-03-19T08:38:04;12.52;74.32
72128;DHT22;60000;51.030;7.024;2023-03-19T08:40:29;12.56;73.69
72128;DHT22;60000;51.030;7.024;2023-03-19T08:42:55;12.59;73.64
72128;DHT22;60000;51.030;7.024;2023-03-19T08:45:21;12.60;73.59
72128;DHT22;60000;51.030;7.024;2023-03-19T08:47:47;12.63;73.52
72128;DHT22;60000;51.030;7.024;2023-03-19T08:50:13;12.66;73.55
72128;DHT22;60000;51.030;7.024;2023-03-19T08:52:38;12.76;73.71
72128;DHT22;60000;51.030;7.024;2023-03-19T08:55:03;12.84;73.39
72128;DHT22;60000;51.030;7.024;2023-03-19T08:57:30;12.94;73.20
72128;DHT22;60000;51.030;7.024;2023-03-19T08:59:56;13.03;73.22
72128;DHT22;60000;51.030;7.024;2023-03-19T09:02:21;13.08;72.79
72128;DHT22;60000;51.030;7.024;2023-03-19T09:04:47;13.19;72.60
72128;DHT22;60000;51.030;7.024;2023-03-19T09:07:12;13.31;72.52
72128;DHT22;60000;51.030;7.024;2023-03-19T09:09:40;13.46;72.15
72128;DHT22;60000;51.030;7.024;2023-03-19T09:12:07;13.59;71.96
72128;DHT22;60000;51.030;7.024;2023-03-19T09:14:34;13.67;71.24
72128;DHT22;60000;51.030;7.024;2023-03-19T09:16:59;13.67;71.03
72128;DHT22;60000;51.030;7.024;2023-03-19T09:19:25;13.66;70.86
72128;DHT22;60000;51.030;7.024;2023-03-19T09:21:51;13.77;70.97
72128;DHT22;60000;51.030;7.024;2023-03-19T09:24:16;13.91;71.40
72128;DHT22;60000;51.030;7.024;2023-03-19T09:26:43;14.10;70.24
72128;DHT22;60000;51.030;7.024;2023-03-19T09:29:08;14.20;69.98
72128;DHT22;60000;51.030;7.024;2023-03-19T09:31:34;14.20;69.44
72128;DHT22;60000;51.030;7.024;2023-03-19T09:34:00;14.21;69.47
72128;DHT22;60000;51.030;7.024;2023-03-19T09:36:25;14.18;69.04
72128;DHT22;60000;51.030;7.024;2023-03-19T09:38:51;14.23;69.32
72128;DHT22;60000;51.030;7.024;2023-03-19T09:41:38;14.20;69.11
72128;DHT22;60000;51.030;7.024;2023-03-19T09:44:12;14.12;69.09
72128;DHT22;60000;51.030;7.024;2023-03-19T09:46:50;14.12;69.30
72128;DHT22;60000;51.030;7.024;2023-03-19T09:49:26;14.09;69.48
72128;DHT22;60000;51.030;7.024;2023-03-19T09:51:58;14.14;69.70
72128;DHT22;60000;51.030;7.024;2023-03-19T09:54:27;14.27;69.69
72128;DHT22;60000;51.030;7.024;2023-03-19T09:56:54;14.28;68.92
72128;DHT22;60000;51.030;7.024;2023-03-19T09:59:22;14.33;68.95
72128;DHT22;60000;51.030;7.024;2023-03-19T10:02:09;14.35;69.05
72128;DHT22;60000;51.030;7.024;2023-03-19T10:15:43;14.60;68.42
72128;DHT22;60000;51.030;7.024;2023-03-19T10:18:14;14.58;67.97
72128;DHT22;60000;51.030;7.024;2023-03-19T10:25:54;14.65;67.89
72128;DHT22;60000;51.030;7.024;2023-03-19T10:28:21;14.60;67.75
72128;DHT22;60000;51.030;7.024;2023-03-19T10:31:29;14.65;68.28
72128;DHT22;60000;51.030;7.024;2023-03-19T10:36:33;14.86;67.77
72128;DHT22;60000;51.030;7.024;2023-03-19T10:38:58;14.89;66.89
72128;DHT22;60000;51.030;7.024;2023-03-19T10:41:44;14.92;67.65
72128;DHT22;60000;51.030;7.024;2023-03-19T10:44:30;14.92;66.96
72128;DHT22;60000;51.030;7.024;2023-03-19T10:46:57;14.95;67.64
72128;DHT22;60000;51.030;7.024;2023-03-19T10:49:24;14.98;67.32
72128;DHT22;60000;51.030;7.024;2023-03-19T10:51:50;15.07;67.31
72128;DHT22;60000;51.030;7.024;2023-03-19T10:54:21;15.16;67.08
72128;DHT22;60000;51.030;7.024;2023-03-19T10:56:48;15.27;67.48
72128;DHT22;60000;51.030;7.024;2023-03-19T10:59:35;15.44;66.21
72128;DHT22;60000;51.030;7.024;2023-03-19T11:02:14;15.49;65.65
72128;DHT22;60000;51.030;7.024;2023-03-19T11:04:40;15.46;66.01
72128;DHT22;60000;51.030;7.024;2023-03-19T11:07:12;15.53;66.48
72128;DHT22;60000;51.030;7.024;2023-03-19T11:09:39;15.49;65.47
72128;DHT22;60000;51.030;7.024;2023-03-19T11:12:31;15.41;65.52
72128;DHT22;60000;51.030;7.024;2023-03-19T11:14:59;15.41;65.64
72128;DHT22;60000;51.030;7.024;2023-03-19T11:17:38;15.43;66.15
72128;DHT22;60000;51.030;7.024;2023-03-19T11:20:30;15.39;65.79
72128;DHT22;60000;51.030;7.024;2023-03-19T11:22:57;15.33;66.73
72128;DHT22;60000;51.030;7.024;2023-03-19T11:28:11;15.53;66.21
72128;DHT22;60000;51.030;7.024;2023-03-19T11:30:40;15.68;65.33
72128;DHT22;60000;51.030;7.024;2023-03-19T11:35:45;16.19;63.28
72128;DHT22;60000;51.030;7.024;2023-03-19T11:38:26;16.63;63.59
72128;DHT22;60000;51.030;7.024;2023-03-19T11:41:03;16.80;62.68
72128;DHT22;60000;51.030;7.024;2023-03-19T11:43:46;16.76;62.08
72128;DHT22;60000;51.030;7.024;2023-03-19T11:49:38;16.87;62.02
72128;DHT22;60000;51.030;7.024;2023-03-19T11:52:10;17.01;61.93
72128;DHT22;60000;51.030;7.024;2023-03-19T11:55:21;16.98;61.30
72128;DHT22;60000;51.030;7.024;2023-03-19T12:00:50;17.21;61.97
72128;DHT22;60000;51.030;7.024;2023-03-19T12:08:48;18.16;57.95
72128;DHT22;60000;51.030;7.024;2023-03-19T12:11:39;18.23;56.28
72128;DHT22;60000;51.030;7.024;2023-03-19T12:17:22;17.61;56.95
72128;DHT22;60000;51.030;7.024;2023-03-19T12:20:16;17.35;58.64
72128;DHT22;60000;51.030;7.024;2023-03-19T12:23:04;17.29;60.06
72128;DHT22;60000;51.030;7.024;2023-03-19T12:25:40;17.24;59.20
72128;DHT22;60000;51.030;7.024;2023-03-19T12:28:22;17.28;59.23
72128;DHT22;60000;51.030;7.024;2023-03-19T12:31:03;17.32;60.08
72128;DHT22;60000;51.030;7.024;2023-03-19T12:36:32;17.29;58.76
72128;DHT22;60000;51.030;7.024;2023-03-19T12:39:09;17.25;60.12
72128;DHT22;60000;51.030;7.024;2023-03-19T12:41:39;17.21;59.74
72128;DHT22;60000;51.030;7.024;2023-03-19T12:49:45;16.74;61.22
72128;DHT22;60000;51.030;7.024;2023-03-19T12:52:34;16.70;62.25
72128;DHT22;60000;51.030;7.024;2023-03-19T12:58:00;16.81;62.55
72128;DHT22;60000;51.030;7.024;2023-03-19T13:00:34;16.91;61.32
72128;DHT22;60000;51.030;7.024;2023-03-19T13:05:46;16.74;60.69
72128;DHT22;60000;51.030;7.024;2023-03-19T13:10:41;16.84;59.74
72128;DHT22;60000;51.030;7.024;2023-03-19T13:16:12;16.92;59.90
72128;DHT22;60000;51.030;7.024;2023-03-19T13:21:48;16.98;60.23
72128;DHT22;60000;51.030;7.024;2023-03-19T13:24:30;16.84;59.75
72128;DHT22;60000;51.030;7.024;2023-03-19T13:26:57;16.70;60.59
72128;DHT22;60000;51.030;7.024;2023-03-19T13:29:27;16.39;60.64
72128;DHT22;60000;51.030;7.024;2023-03-19T13:31:59;16.32;62.04
72128;DHT22;60000;51.030;7.024;2023-03-19T13:34:26;16.16;61.48
72128;DHT22;60000;51.030;7.024;2023-03-19T13:37:14;16.02;62.20
72128;DHT22;60000;51.030;7.024;2023-03-19T13:39:41;15.85;62.68
72128;DHT22;60000;51.030;7.024;2023-03-19T13:42:09;15.67;63.20
72128;DHT22;60000;51.030;7.024;2023-03-19T13:52:47;14.91;68.80
72128;DHT22;60000;51.030;7.024;2023-03-19T13:55:32;14.78;70.00
72128;DHT22;60000;51.030;7.024;2023-03-19T14:03:30;14.48;71.70
72128;DHT22;60000;51.030;7.024;2023-03-19T14:05:58;14.37;72.04
72128;DHT22;60000;51.030;7.024;2023-03-19T14:08:42;14.10;72.52
72128;DHT22;60000;51.030;7.024;2023-03-19T14:11:21;13.96;73.72
72128;DHT22;60000;51.030;7.024;2023-03-19T14:13:48;13.83;74.54
72128;DHT22;60000;51.030;7.024;2023-03-19T14:16:23;13.76;75.89
72128;DHT22;60000;51.030;7.024;2023-03-19T14:18:55;13.67;76.28
72128;DHT22;60000;51.030;7.024;2023-03-19T14:21:38;13.56;76.70
72128;DHT22;60000;51.030;7.024;2023-03-19T14:27:00;13.36;78.17
72128;DHT22;60000;51.030;7.024;2023-03-19T14:29:27;13.36;78.38
72128;DHT22;60000;51.030;7.024;2023-03-19T14:31:56;13.36;77.95
72128;DHT22;60000;51.030;7.024;2023-03-19T14:34:32;13.39;78.30
72128;DHT22;60000;51.030;7.024;2023-03-19T14:37:20;13.42;78.17
72128;DHT22;60000;51.030;7.024;2023-03-19T14:39:57;13.48;78.63
72128;DHT22;60000;51.030;7.024;2023-03-19T14:42:37;13.56;78.46
72128;DHT22;60000;51.030;7.024;2023-03-19T14:48:23;13.61;78.29
72128;DHT22;60000;51.030;7.024;2023-03-19T14:56:31;13.46;79.76
72128;DHT22;60000;51.030;7.024;2023-03-19T14:58:58;13.39;80.21
72128;DHT22;60000;51.030;7.024;2023-03-19T15:01:28;13.31;80.45
72128;DHT22;60000;51.030;7.024;2023-03-19T15:03:58;13.18;81.34
72128;DHT22;60000;51.030;7.024;2023-03-19T15:06:30;13.10;82.29
72128;DHT22;60000;51.030;7.024;2023-03-19T15:08:57;13.01;83.02
72128;DHT22;60000;51.030;7.024;2023-03-19T15:17:30;12.87;83.93
72128;DHT22;60000;51.030;7.024;2023-03-19T15:19:59;12.87;84.04
72128;DHT22;60000;51.030;7.024;2023-03-19T15:22:28;12.84;84.21
72128;DHT22;60000;51.030;7.024;2023-03-19T15:25:04;12.86;84.02
72128;DHT22;60000;51.030;7.024;2023-03-19T15:27:29;12.90;83.68
72128;DHT22;60000;51.030;7.024;2023-03-19T15:29:55;12.95;83.73
72128;DHT22;60000;51.030;7.024;2023-03-19T15:32:32;13.03;83.39
72128;DHT22;60000;51.030;7.024;2023-03-19T15:34:58;13.10;83.62
72128;DHT22;60000;51.030;7.024;2023-03-19T15:37:24;13.14;83.24
72128;DHT22;60000;51.030;7.024;2023-03-19T15:39:52;13.11;82.29
72128;DHT22;60000;51.030;7.024;2023-03-19T15:42:21;13.14;82.75
72128;DHT22;60000;51.030;7.024;2023-03-19T15:44:57;13.19;83.32
72128;DHT22;60000;51.030;7.024;2023-03-19T15:47:29;13.21;83.27
72128;DHT22;60000;51.030;7.024;2023-03-19T15:50:08;13.21;83.18
72128;DHT22;60000;51.030;7.024;2023-03-19T15:52:38;13.21;82.52
72128;DHT22;60000;51.030;7.024;2023-03-19T15:55:05;13.22;82.68
72128;DHT22;60000;51.030;7.024;2023-03-19T15:57:32;13.18;82.70
72128;DHT22;60000;51.030;7.024;2023-03-19T16:00:00;13.18;82.98
72128;DHT22;60000;51.030;7.024;2023-03-19T16:02:31;13.19;82.87
72128;DHT22;60000;51.030;7.024;2023-03-19T16:04:58;13.14;83.31
72128;DHT22;60000;51.030;7.024;2023-03-19T16:07:31;13.12;83.56
72128;DHT22;60000;51.030;7.024;2023-03-19T16:10:00;13.10;83.69
72128;DHT22;60000;51.030;7.024;2023-03-19T16:12:47;13.05;83.96
72128;DHT22;60000;51.030;7.024;2023-03-19T16:15:41;13.01;83.85
72128;DHT22;60000;51.030;7.024;2023-03-19T16:20:43;12.95;84.51
72128;DHT22;60000;51.030;7.024;2023-03-19T16:23:18;12.84;85.01
72128;DHT22;60000;51.030;7.024;2023-03-19T16:25:45;12.76;85.43
72128;DHT22;60000;51.030;7.024;2023-03-19T16:28:18;12.68;85.59
72128;DHT22;60000;51.030;7.024;2023-03-19T16:30:45;12.67;85.90
72128;DHT22;60000;51.030;7.024;2023-03-19T16:33:13;12.63;85.89
72128;DHT22;60000;51.030;7.024;2023-03-19T16:35:38;12.53;85.93
72128;DHT22;60000;51.030;7.024;2023-03-19T16:38:21;12.46;85.76
72128;DHT22;60000;51.030;7.024;2023-03-19T16:40:49;12.40;86.05
72128;DHT22;60000;51.030;7.024;2023-03-19T16:45:51;12.35;86.18
72128;DHT22;60000;51.030;7.024;2023-03-19T16:48:27;12.28;86.25
72128;DHT22;60000;51.030;7.024;2023-03-19T16:50:52;12.25;86.50
72128;DHT22;60000;51.030;7.024;2023-03-19T16:53:24;12.25;86.82
72128;DHT22;60000;51.030;7.024;2023-03-19T16:55:54;12.28;86.90
72128;DHT22;60000;51.030;7.024;2023-03-19T16:58:41;12.29;87.20
72128;DHT22;60000;51.030;7.024;2023-03-19T17:01:33;12.25;86.86
72128;DHT22;60000;51.030;7.024;2023-03-19T17:03:59;12.21;87.19
72128;DHT22;60000;51.030;7.024;2023-03-19T17:06:24;12.22;87.48
72128;DHT22;60000;51.030;7.024;2023-03-19T17:08:51;12.21;87.71
72128;DHT22;60000;51.030;7.024;2023-03-19T17:11:27;12.24;87.90
72128;DHT22;60000;51.030;7.024;2023-03-19T17:13:56;12.22;87.92
72128;DHT22;60000;51.030;7.024;2023-03-19T17:16:22;12.24;87.83
72128;DHT22;60000;51.030;7.024;2023-03-19T17:18:47;12.18;87.90
72128;DHT22;60000;51.030;7.024;2023-03-19T17:23:44;12.15;88.31